ADDS METAR Data INFO
IDs: Format: Raw Decoded Include TAF

Data at: 1714 UTC 23 Oct 2017

KFPR 231653Z 14017G21KT 10SM FEW030 29/24 A3001 RMK AO2 SLP161 T02890239
KFPR 231553Z 17008KT 10SM SCT026 BKN050 OVC095 27/26 A3005 RMK AO2 RAB28E48 SLP174 P0002 T02670256
KFPR 231517Z 15014G23KT 10SM FEW023 SCT028 BKN042 29/24 A3006 RMK AO2 T02890239
KFPR 231453Z 13013KT 10SM BKN025 29/24 A3006 RMK AO2 SLP178 60000 T02940244 57004
KFPR 231450Z 14014KT 10SM SCT023 BKN028 29/25 A3006 RMK AO2
KFPR 231353Z 15013KT 10SM SCT039 BKN050 29/23 A3007 RMK AO2 SLP181 T02890233
KFPR 231253Z 15008KT 10SM FEW023 SCT033 28/24 A3007 RMK AO2 RAE1156 SLP182 P0000 T02780239
KFPR 231244Z 15007KT 10SM FEW019 BKN033 27/24 A3007 RMK AO2 RAE1156 P0000 T02720244
KFPR 231153Z 14009KT 10SM -RA BKN021 BKN026 OVC039 27/24 A3006 RMK AO2 RAB44 SLP178 P0000 60000 T02670244 10267 20261 53005
KFPR 231135Z 13010KT 9SM SCT021 BKN029 OVC038 27/24 A3006 RMK AO2 T02670239
KFPR 231102Z 13010KT 10SM SCT026 BKN034 26/24 A3005 RMK AO2 T02610239
KFPR 231053Z AUTO 13010KT 10SM BKN028 26/24 A3005 RMK AO2 SLP174 T02610239
KFPR 231051Z AUTO 13011KT 10SM BKN028 26/24 A3005 RMK AO2
KFPR 231027Z AUTO 13009KT 10SM FEW023 OVC030 26/24 A3005 RMK AO2 T02610239
KFPR 230953Z AUTO 12010KT 10SM OVC028 26/24 A3004 RMK AO2 SLP173 T02610239
KFPR 230944Z AUTO 12010KT 10SM OVC028 26/23 A3004 RMK AO2 T02610233
KFPR 230912Z AUTO 13011KT 10SM BKN030 26/23 A3005 RMK AO2 T02610233
KFPR 230853Z AUTO 13011KT 10SM FEW024 BKN029 27/23 A3005 RMK AO2 SLP174 T02670233 56009
KFPR 230843Z AUTO 12011KT 10SM FEW024 OVC030 26/23 A3005 RMK AO2 T02610233
KFPR 230814Z AUTO 13012KT 10SM OVC028 26/23 A3006 RMK AO2 T02610233
KFPR 230753Z AUTO 13012KT 10SM OVC030 27/23 A3006 RMK AO2 SLP177 T02670233
KFPR 230750Z AUTO 12012KT 10SM OVC030 26/23 A3006 RMK AO2
KFPR 230653Z AUTO 13011KT 10SM OVC029 27/23 A3007 RMK AO2 SLP183 T02670233
KFPR 230612Z AUTO 13011KT 10SM BKN028 26/23 A3008 RMK AO2 T02610233
KFPR 230553Z AUTO 13010KT 10SM BKN030 27/23 A3008 RMK AO2 SLP184 T02670228 10272 20267 58008
KFPR 230538Z AUTO 13011KT 10SM BKN029 27/23 A3008 RMK AO2 T02670228
KFPR 230453Z AUTO 13011KT 10SM OVC033 27/23 A3009 RMK AO2 SLP189 T02670228 403060250
KFPR 230353Z AUTO 12011KT 10SM SCT037 BKN055 27/23 A3010 RMK AO2 SLP191 T02720228
KFPR 230253Z AUTO 12011KT 10SM BKN037 27/23 A3010 RMK AO2 SLP192 T02720233 50003
KFPR 230153Z AUTO 12011KT 10SM SCT039 27/24 A3010 RMK AO2 SLP193 T02670239
KFPR 230053Z AUTO 12011KT 10SM FEW034 27/24 A3009 RMK AO2 SLP190 T02670239
KFPR 222353Z 12009KT 10SM OVC035 27/24 A3009 RMK AO2 SLP189 T02720239 10300 20272 53005
KFPR 222253Z 11010KT 10SM SCT034 27/24 A3008 RMK AO2 SLP185 T02720239
KFPR 222153Z 12011KT 10SM SCT034 28/23 A3008 RMK AO2 SLP183 T02830233
KFPR 222053Z 12014G21KT 10SM FEW029 SCT037 29/23 A3007 RMK AO2 SLP183 T02890233 56011
KFPR 221953Z 15015KT 10SM FEW029 30/23 A3008 RMK AO2 SLP185 T03000228
KFPR 221909Z 13017G23KT 10SM SCT026 SCT034 30/23 A3009 RMK AO2 T03000228
KFPR 221900Z 13013KT 10SM BKN026 BKN034 30/24 A3009 RMK AO2 T03000239
KFPR 221853Z 12014G21KT 10SM SCT025 SCT035 29/24 A3009 RMK AO2 SLP188 T02940239
KFPR 221825Z 12016G21KT 10SM BKN024 BKN031 30/24 A3009 RMK AO2 T03000239
KFPR 221753Z 11017KT 10SM SCT025 SCT033 29/24 A3011 RMK AO2 SLP194 T02890239 10306 20261 58012
KFPR 221653Z 12015G21KT 10SM FEW025 29/24 A3012 RMK AO2 SLP200 T02940244
KFPR 221553Z 12016G20KT 10SM CLR 29/24 A3014 RMK AO2 SLP207 T02940244
KFPR 221500Z 12015KT 10SM CLR 29/24 A3014 RMK AO2 T02940244
KFPR 221453Z 12016KT 10SM BKN025 BKN030 29/24 A3014 RMK AO2 SLP206 T02940244 51014
KFPR 221438Z 11015KT 10SM SCT023 OVC029 29/24 A3014 RMK AO2 T02890244
KFPR 221353Z 11013KT 10SM BKN032 28/24 A3014 RMK AO2 SLP204 T02830244
KFPR 221253Z 12011KT 10SM FEW035 28/24 A3012 RMK AO2 SLP199 T02780239
KFPR 221153Z 12010KT 9SM SCT033 26/24 A3010 RMK AO2 SLP193 60000 70002 T02610239 10261 20250 53011
KFPR 221053Z AUTO 11008KT 10SM BKN033 26/24 A3009 RMK AO2 SLP187 T02610244
KFPR 220953Z AUTO 13004KT 10SM SCT032 25/24 A3007 RMK AO2 SLP182 T02500239
KFPR 220853Z AUTO 11010KT 10SM BKN100 26/24 A3007 RMK AO2 SLP182 60000 T02610244 55009
KFPR 220753Z AUTO 10008KT 10SM CLR 26/24 A3007 RMK AO2 SLP180 T02560239
KFPR 220653Z AUTO 10009KT 10SM FEW027 FEW032 26/24 A3008 RMK AO2 RAB0559E08 SLP184 P0000 T02560239
KFPR 220553Z AUTO 09010KT 10SM FEW023 SCT030 BKN037 26/24 A3010 RMK AO2 SLP191 60002 T02610239 10272 20250 58013